createdAt,value
2023-02-22T00:01:20.158Z,63.66
2023-02-22T00:06:25.254Z,63.88
2023-02-22T00:11:29.570Z,64.07
2023-02-22T00:16:32.537Z,64.56
2023-02-22T00:21:34.622Z,65.28
2023-02-22T00:26:36.620Z,65.50
2023-02-22T00:31:39.521Z,65.57
2023-02-22T00:36:51.640Z,65.95
2023-02-22T00:41:53.747Z,66.44
2023-02-22T00:46:55.866Z,66.91
2023-02-22T00:51:57.996Z,67.18
2023-02-22T00:57:00.232Z,67.23
2023-02-22T01:02:02.974Z,67.35
2023-02-22T01:07:05.102Z,67.78
2023-02-22T01:12:08.311Z,68.08
2023-02-22T01:17:10.397Z,68.43
2023-02-22T01:22:12.533Z,68.75
2023-02-22T01:27:14.756Z,69.22
2023-02-22T01:32:16.801Z,69.69
2023-02-22T01:37:18.824Z,69.44
2023-02-22T01:42:21.582Z,69.69
2023-02-22T01:47:23.686Z,69.76
2023-02-22T01:52:25.564Z,69.97
2023-02-22T01:57:33.704Z,70.94
2023-02-22T02:02:37.327Z,71.32
2023-02-22T02:07:39.482Z,71.25
2023-02-22T02:12:48.364Z,71.30
2023-02-22T02:17:52.599Z,71.43
2023-02-22T02:23:11.375Z,71.32
2023-02-22T02:28:34.362Z,71.91
2023-02-22T02:34:00.743Z,71.81
2023-02-22T02:39:20.081Z,71.73
2023-02-22T02:44:32.082Z,72.11
2023-02-22T02:49:44.795Z,73.03
2023-02-22T02:54:47.361Z,73.14
2023-02-22T02:59:49.615Z,73.47
2023-02-22T03:05:30.066Z,73.72
2023-02-22T03:11:06.784Z,74.14
2023-02-22T03:16:11.815Z,74.42
2023-02-22T03:21:20.191Z,74.98
2023-02-22T03:26:26.096Z,75.14
2023-02-22T03:31:37.434Z,75.11
2023-02-22T03:36:48.799Z,74.70
2023-02-22T03:41:53.387Z,75.00
2023-02-22T03:47:03.041Z,75.10
2023-02-22T03:52:05.543Z,75.20
2023-02-22T03:57:16.168Z,75.43
2023-02-22T04:02:19.210Z,75.41
2023-02-22T04:07:21.243Z,75.13
2023-02-22T04:12:24.535Z,74.75
2023-02-22T04:17:32.256Z,74.95
2023-02-22T04:22:35.629Z,75.18
2023-02-22T04:27:37.947Z,75.09
2023-02-22T04:32:40.869Z,75.46
2023-02-22T04:37:43.032Z,75.33
2023-02-22T04:42:45.318Z,75.21
2023-02-22T04:47:47.385Z,75.23
2023-02-22T04:52:49.874Z,75.22
2023-02-22T04:57:52.017Z,75.15
2023-02-22T05:02:54.146Z,75.24
2023-02-22T05:07:56.273Z,75.42
2023-02-22T05:12:58.232Z,75.40
2023-02-22T05:18:00.215Z,75.54
2023-02-22T05:23:03.434Z,75.53
2023-02-22T05:28:10.444Z,75.68
2023-02-22T05:33:13.267Z,75.70
2023-02-22T05:38:15.650Z,75.92
2023-02-22T05:43:17.812Z,75.76
2023-02-22T05:48:22.222Z,76.01
2023-02-22T05:53:25.082Z,76.43
2023-02-22T05:58:27.013Z,76.55
2023-02-22T06:03:28.957Z,76.36
2023-02-22T06:08:30.941Z,76.55
2023-02-22T06:13:33.118Z,76.49
2023-02-22T06:18:35.399Z,76.21
2023-02-22T06:23:37.381Z,76.56
2023-02-22T06:28:39.223Z,76.90
2023-02-22T06:33:45.424Z,77.13
2023-02-22T06:38:47.360Z,77.11
2023-02-22T06:43:49.612Z,77.02
2023-02-22T06:48:52.319Z,76.85
2023-02-22T06:53:54.517Z,77.08
2023-02-22T06:58:56.438Z,77.23
2023-02-22T07:03:58.379Z,77.13
2023-02-22T07:09:01.227Z,76.96
2023-02-22T07:14:03.208Z,76.71
2023-02-22T07:19:05.297Z,76.79
2023-02-22T07:24:07.426Z,76.92
2023-02-22T07:29:11.465Z,76.96
2023-02-22T07:34:14.373Z,76.97
2023-02-22T07:39:16.325Z,77.15
2023-02-22T07:44:18.393Z,77.26
2023-02-22T07:49:20.457Z,77.06
2023-02-22T07:54:22.491Z,77.10
2023-02-22T07:59:24.398Z,77.04
2023-02-22T08:04:26.327Z,76.86
2023-02-22T08:09:28.293Z,76.62
2023-02-22T08:14:30.370Z,76.47
2023-02-22T08:19:32.385Z,76.18
2023-02-22T08:24:34.806Z,75.49
2023-02-22T08:29:36.945Z,75.75
2023-02-22T08:34:38.847Z,75.41
2023-02-22T08:39:42.123Z,75.35
2023-02-22T08:44:45.515Z,75.26
2023-02-22T08:49:49.052Z,74.66
2023-02-22T08:54:52.472Z,74.05
2023-02-22T08:59:55.799Z,73.45
2023-02-22T09:04:59.180Z,72.95
2023-02-22T09:10:04.669Z,72.17
2023-02-22T09:15:08.727Z,70.08
2023-02-22T09:20:13.548Z,69.10
2023-02-22T09:25:17.540Z,68.11
2023-02-22T09:30:23.992Z,66.79
2023-02-22T09:35:30.158Z,65.90
2023-02-22T09:40:36.967Z,64.24
2023-02-22T09:46:14.050Z,62.45
2023-02-22T09:51:18.382Z,60.65
2023-02-22T09:56:20.496Z,57.87
2023-02-22T10:01:49.620Z,56.32
2023-02-22T10:06:54.261Z,55.11
2023-02-22T10:12:02.760Z,53.84
2023-02-22T10:17:15.935Z,51.96
2023-02-22T10:22:27.089Z,50.89
2023-02-22T10:27:34.252Z,51.21
2023-02-22T10:32:48.101Z,50.43
2023-02-22T10:37:54.528Z,49.84
2023-02-22T10:42:56.529Z,48.97
2023-02-22T10:48:01.652Z,48.50
2023-02-22T10:53:04.073Z,47.18
2023-02-22T10:58:07.808Z,45.97
2023-02-22T11:03:18.297Z,46.25
2023-02-22T11:08:33.131Z,46.63
2023-02-22T11:13:39.502Z,45.84
2023-02-22T11:18:41.598Z,45.85
2023-02-22T11:23:46.581Z,45.34
2023-02-22T11:28:50.709Z,46.83
2023-02-22T11:34:03.553Z,48.04
2023-02-22T11:39:11.979Z,48.78
2023-02-22T11:44:31.664Z,48.85
2023-02-22T11:49:38.638Z,49.25
2023-02-22T11:54:46.564Z,48.88
2023-02-22T12:00:16.724Z,49.91
2023-02-22T12:05:37.392Z,48.47
2023-02-22T12:10:49.669Z,47.53
2023-02-22T12:16:00.171Z,47.52
2023-02-22T12:21:11.086Z,48.88
2023-02-22T12:26:15.166Z,48.24
2023-02-22T12:31:24.235Z,47.76
2023-02-22T12:36:36.098Z,48.38
2023-02-22T12:41:44.967Z,47.79
2023-02-22T12:46:53.551Z,48.30
2023-02-22T12:52:22.046Z,48.23
2023-02-22T12:58:05.920Z,47.96
2023-02-22T13:03:32.190Z,48.31
2023-02-22T13:09:05.588Z,47.71
2023-02-22T13:14:30.280Z,47.64
2023-02-22T13:20:06.301Z,47.31
2023-02-22T13:25:29.218Z,48.36
2023-02-22T13:30:41.982Z,47.15
2023-02-22T13:36:06.786Z,47.57
2023-02-22T13:41:15.570Z,48.00
2023-02-22T13:46:32.957Z,47.55
2023-02-22T13:51:47.458Z,46.78
2023-02-22T13:56:51.656Z,47.21
2023-02-22T14:01:55.723Z,47.76
2023-02-22T14:07:02.266Z,46.99
2023-02-22T14:12:04.438Z,46.87
2023-02-22T14:17:24.717Z,45.72
2023-02-22T14:22:29.219Z,46.30
2023-02-22T14:27:41.817Z,46.45
2023-02-22T14:32:44.080Z,46.75
2023-02-22T14:37:50.825Z,46.73
2023-02-22T14:43:15.170Z,45.89
2023-02-22T14:48:30.756Z,45.92
2023-02-22T14:53:41.140Z,46.01
2023-02-22T14:58:46.197Z,45.92
2023-02-22T15:03:56.012Z,45.43
2023-02-22T15:09:12.073Z,44.82
2023-02-22T15:14:26.830Z,45.66
2023-02-22T15:19:31.591Z,44.55
2023-02-22T15:24:35.120Z,44.22
2023-02-22T15:29:40.055Z,44.40
2023-02-22T15:34:43.190Z,44.65
2023-02-22T15:39:45.581Z,45.36
2023-02-22T15:44:50.878Z,44.62
2023-02-22T15:50:27.688Z,44.80
2023-02-22T15:55:40.886Z,44.29
2023-02-22T16:01:11.235Z,45.27
2023-02-22T16:06:35.756Z,45.09
2023-02-22T16:11:47.756Z,44.54
2023-02-22T16:16:52.764Z,44.91
2023-02-22T16:22:13.514Z,45.45
2023-02-22T16:27:15.981Z,45.18
2023-02-22T16:32:17.934Z,45.30
2023-02-22T16:37:24.787Z,45.82
2023-02-22T16:42:30.399Z,45.93
2023-02-22T16:47:33.624Z,46.01
2023-02-22T16:52:39.627Z,46.70
2023-02-22T16:57:42.442Z,46.87
2023-02-22T17:02:45.353Z,47.71
2023-02-22T17:07:47.423Z,47.98
2023-02-22T17:12:53.524Z,47.95
2023-02-22T17:17:56.432Z,48.93
2023-02-22T17:23:04.338Z,49.33
2023-02-22T17:28:07.082Z,49.72
2023-02-22T17:33:10.099Z,50.09
2023-02-22T17:38:12.352Z,50.73
2023-02-22T17:43:15.761Z,50.67
2023-02-22T17:48:19.011Z,51.27
2023-02-22T17:53:23.064Z,51.98
2023-02-22T17:58:29.648Z,51.95
2023-02-22T18:03:33.181Z,52.25
2023-02-22T18:08:35.826Z,52.94
2023-02-22T18:13:38.309Z,53.42
2023-02-22T18:18:40.411Z,54.28
2023-02-22T18:23:43.688Z,54.56
2023-02-22T18:28:46.248Z,55.64
2023-02-22T18:33:50.746Z,55.76
2023-02-22T18:38:53.865Z,56.32
2023-02-22T18:43:59.059Z,56.62
2023-02-22T18:49:01.107Z,57.08
2023-02-22T18:54:05.769Z,56.95
2023-02-22T18:59:12.348Z,57.44
2023-02-22T19:04:15.507Z,58.15
2023-02-22T19:09:18.314Z,58.56
2023-02-22T19:14:21.291Z,59.02
2023-02-22T19:19:26.506Z,59.44
2023-02-22T19:24:28.937Z,59.76
2023-02-22T19:29:31.375Z,60.13
2023-02-22T19:34:33.694Z,60.26
2023-02-22T19:39:38.546Z,60.59
2023-02-22T19:44:41.012Z,60.14
2023-02-22T19:49:43.038Z,60.46
2023-02-22T19:54:45.291Z,61.12
2023-02-22T19:59:47.624Z,61.66
2023-02-22T20:04:51.140Z,61.30
2023-02-22T20:09:53.918Z,61.55
2023-02-22T20:14:58.552Z,61.91
2023-02-22T20:20:00.301Z,61.83
2023-02-22T20:25:02.341Z,62.21
2023-02-22T20:30:05.177Z,62.48
2023-02-22T20:35:07.827Z,62.53
2023-02-22T20:40:11.069Z,63.58
2023-02-22T20:45:16.523Z,64.26
2023-02-22T20:50:18.468Z,64.20
2023-02-22T20:55:20.880Z,65.07
2023-02-22T21:00:22.897Z,65.68
2023-02-22T21:05:24.727Z,65.33
2023-02-22T21:10:26.618Z,65.32
2023-02-22T21:15:28.535Z,65.71
2023-02-22T21:20:31.172Z,66.13
2023-02-22T21:25:33.154Z,65.93
2023-02-22T21:30:35.297Z,66.12
2023-02-22T21:35:38.368Z,66.78
2023-02-22T21:40:46.961Z,67.14
2023-02-22T21:45:49.984Z,67.26
2023-02-22T21:50:51.954Z,67.74
2023-02-22T21:55:53.904Z,67.08
2023-02-22T22:00:58.867Z,66.78
2023-02-22T22:06:00.746Z,66.85
2023-02-22T22:11:03.954Z,67.01
2023-02-22T22:16:08.720Z,67.24
2023-02-22T22:21:16.417Z,67.50
2023-02-22T22:26:20.163Z,68.11
2023-02-22T22:31:24.118Z,68.33
2023-02-22T22:36:27.483Z,68.24
2023-02-22T22:41:29.642Z,68.58
2023-02-22T22:46:31.937Z,68.43
2023-02-22T22:51:34.208Z,69.11
2023-02-22T22:56:38.048Z,69.67
2023-02-22T23:01:44.614Z,70.08
2023-02-22T23:06:52.170Z,70.41
2023-02-22T23:11:56.532Z,70.46
2023-02-22T23:17:15.046Z,70.72
2023-02-22T23:22:16.929Z,71.13
2023-02-22T23:27:19.151Z,72.07
2023-02-22T23:32:21.415Z,72.05
2023-02-22T23:37:24.021Z,72.52
2023-02-22T23:42:25.973Z,73.53
2023-02-22T23:47:34.814Z,74.19
2023-02-22T23:52:37.496Z,74.39
2023-02-22T23:57:43.195Z,74.61
